Flight Track Log - Related Links

Times and Time Zones

All times are in EDT time to prevent confusion due to time zone crossing. See the EJA102 flight status page for this flight to view local times or setup timezone preferences in your user account.

Time Position Orientation Groundspeed Altitude Reporting Facility
EDT Latitude Longitude Course Direction KTS MPH feet Rate Location/Type
Wed 08:06:57 AM 40.8933 -74.0411 157° South 195 224 1,800  Level New York Center
Wed 08:07:58 AM 40.9044 -74.1139 281° West 234 269 5,300 2,439 Climbing New York Center
Wed 08:09:00 AM 40.8414 -74.1589 208° Southwest 272 313 6,800 2,226 Climbing New York Center
Wed 08:10:02 AM 40.7617 -74.1894 196° South 281 323 9,900 2,081 Climbing New York Center
Wed 08:11:04 AM 40.6792 -74.2200 196° South 311 358 11,100 2,040 Climbing New York Center
Wed 08:11:42 AM 40.6167 -74.2167 178° South 331 381 13,300 2,562 Climbing New York TRACON
Wed 08:12:00 AM 40.3711 -74.1802 157° South  Level FlightAware Approximate
Wed 08:14:09 AM 40.3897 -74.2344 183° South 338 389 19,000  Level New York Center
Wed 08:15:12 AM 40.3058 -74.2372 181° South 345 397 20,500 1,619 Climbing New York Center
Wed 08:16:15 AM 40.2053 -74.2417 182° South 356 410 22,400 1,721 Climbing New York Center
Wed 08:17:14 AM 40.0919 -74.2928 199° South 366 421 24,000 1,055 Climbing New York Center
Wed 08:17:46 AM 40.0569 -74.3283 218° Southwest 361 415 24,000  Level Washington Center
Wed 08:18:16 AM 40.0075 -74.3803 219° Southwest 384 442 24,000  Level New York Center
Wed 08:19:20 AM 39.9208 -74.4714 219° Southwest 398 458 24,000  Level New York Center
Wed 08:20:22 AM 39.8325 -74.5633 219° Southwest 403 464 24,000  Level New York Center
Wed 08:21:25 AM 39.7444 -74.6553 219° Southwest 403 464 24,000  Level New York Center
Wed 08:22:27 AM 39.6547 -74.7464 218° Southwest 403 464 24,000  Level New York Center
Wed 08:23:29 AM 39.5586 -74.8236 212° Southwest 404 465 24,000  Level New York Center
Wed 08:24:31 AM 39.4536 -74.8828 204° Southwest 406 467 24,000  Level New York Center
Wed 08:25:31 AM 39.3292 -74.9547 204° Southwest 407 468 24,000  Level New York Center
Wed 08:26:33 AM 39.2253 -75.0142 204° Southwest 407 468 24,000  Level New York Center
Wed 08:27:45 AM 39.0997 -75.0833 203° Southwest 406 467 24,000  Level Washington Center
Wed 08:28:45 AM 38.9936 -75.1456 205° Southwest 406 467 24,000  Level Washington Center
Wed 08:29:47 AM 38.8917 -75.2075 205° Southwest 411 473 24,000  Level Washington Center
Wed 08:30:45 AM 38.7878 -75.2642 203° Southwest 411 473 24,000  Level Washington Center
Wed 08:31:46 AM 38.6836 -75.3258 205° Southwest 411 473 24,000 -50 Level Washington Center
Wed 08:32:46 AM 38.5775 -75.3792 201° Southwest 411 473 23,900 -864 Descending Washington Center
Wed 08:33:44 AM 38.4711 -75.4406 204° Southwest 416 479 22,300 -1,613 Descending Washington Center
Wed 08:34:45 AM 38.3628 -75.5017 204° Southwest 416 479 20,700 -1,488 Descending Washington Center
Wed 08:35:45 AM 38.2650 -75.5600 205° Southwest 421 484 19,300 -1,438 Descending Washington Center
Wed 08:36:46 AM 38.1628 -75.6208 205° Southwest 421 484 17,800 -1,488 Descending Washington Center
Wed 08:37:46 AM 38.0647 -75.6842 207° Southwest 409 471 16,300 -1,438 Descending Washington Center
Wed 08:38:47 AM 37.9667 -75.7444 206° Southwest 398 458 14,900 -1,397 Descending Washington Center
Wed 08:38:59 AM 37.9311 -75.7656 205° Southwest 388 447 14,600 -1,500 Descending Washington Center
Wed 08:39:23 AM 37.8936 -75.7917 209° Southwest 386 444 14,000 -1,333 Descending Washington Center
Wed 08:39:44 AM 37.8725 -75.8100 214° Southwest 393 452 13,600 -1,258 Descending Washington Center
Wed 08:40:25 AM 37.7953 -75.8519 203° Southwest 382 440 12,700 -968 Descending Washington Center
Wed 08:40:46 AM 37.7619 -75.8703 204° Southwest 393 452 12,600 -1,254 Descending Washington Center
Wed 08:41:32 AM 37.6972 -75.9119 207° Southwest 355 409 11,300 -1,475 Descending Washington Center
Wed 08:41:47 AM 37.6889 -75.9172 207° Southwest 371 427 11,100 -1,222 Descending Washington Center
Wed 08:42:26 AM 37.6178 -75.9589 205° Southwest 343 395 10,200 -1,300 Descending Washington Center
Wed 08:42:47 AM 37.6011 -75.9744 216° Southwest 356 410 9,800 -1,475 Descending Washington Center
Wed 08:43:27 AM 37.5364 -76.0108 204° Southwest 299 344 8,700 -1,552 Descending Washington Center
Wed 08:43:45 AM 37.5239 -76.0161 199° South 334 384 8,300 -1,475 Descending Washington Center
Wed 08:44:28 AM 37.4592 -76.0289 189° South 286 329 7,200 -1,475 Descending Washington Center
Wed 08:44:46 AM 37.4467 -76.0339 198° South 306 352 6,800 -1,400 Descending Washington Center
Wed 08:45:28 AM 37.3861 -76.0389 184° South 274 315 5,800 -1,400 Descending Washington Center
Wed 08:45:46 AM 37.3714 -76.0414 188° South 284 327 5,400 -1,500 Descending Washington Center
Wed 08:46:28 AM 37.3108 -76.0489 186° South 265 305 4,300 -1,377 Descending Washington Center
Wed 08:46:47 AM 37.2964 -76.0514 188° South 278 320 4,000 -197 Descending Washington Center
Wed 08:47:29 AM 37.2336 -76.0614 187° South 255 293 4,100 -100 Climbing Washington Center
Wed 08:47:47 AM 37.2275 -76.0614 180° South 267 307 3,900  Descending Washington Center
Wed 08:48:29 AM 37.1692 -76.0531 174° South 241 277 4,100  Climbing Washington Center
Wed 08:48:47 AM 37.1628 -76.0481 148° Southeast 248 285 3,900 -484 Descending Washington Center
Wed 08:49:31 AM 37.1044 -76.0658 194° South 244 281 3,600 -743 Descending Washington Center
Wed 08:50:32 AM 37.0353 -76.0992 201° Southwest 262 302 2,600 -984 Descending Washington Center
Wed 08:51:33 AM 36.9683 -76.1300 200° South 241 277 1,600 -977 Descending Washington Center
Wed 08:52:41 AM 36.9203 -76.1764 218° Southwest 144 166 500 -971 Descending Washington Center

Login

Don't have an account? Register now (free) for customized features, flight alerts, and more!